Time;durP1;ratioP1;P1;durP2;ratioP2;P2;SDS_P1;SDS_P2;PMS_P1;PMS_P2;Temp;Humidity;BMP_temperature;BMP_pressure;BME280_temperature;BME280_humidity;BME280_pressure;Samples;Min_cycle;Max_cycle;Signal;HPM_P1;HPM_P2
2022/11/24 00:00:49;;;;;;;;;;;;;;;6.67;100;100132.6;;;;-76
2022/11/24 00:05:49;;;;;;;;;;;;;;;6.66;100;100134.8;;;;-76
2022/11/24 00:07:05;;;;;;;14.6;2.8;;;;;;;;;;;;;-76
2022/11/24 00:10:49;;;;;;;;;;;;;;;6.61;100;100142;;;;-77
2022/11/24 00:15:49;;;;;;;;;;;;;;;6.63;100;100159.5;;;;-75
2022/11/24 00:20:54;;;;;;;;;;;;;;;6.63;100;100167;;;;-76
2022/11/24 00:25:49;;;;;;;;;;;;;;;6.63;100;100163.9;;;;-75
2022/11/24 00:30:49;;;;;;;;;;;;;;;6.64;100;100165.6;;;;-76
2022/11/24 00:35:56;;;;;;;;;;;;;;;6.66;100;100161.9;;;;-76
2022/11/24 00:37:05;;;;;;;8.7;1.5;;;;;;;;;;;;;-76
2022/11/24 00:40:49;;;;;;;;;;;;;;;6.68;100;100161.3;;;;-76
2022/11/24 00:45:49;;;;;;;;;;;;;;;6.73;100;100170.6;;;;-76
2022/11/24 00:50:57;;;;;;;;;;;;;;;6.8;100;100189.3;;;;-75
2022/11/24 00:55:51;;;;;;;;;;;;;;;6.84;100;100188.5;;;;-76
2022/11/24 01:00:50;;;;;;;;;;;;;;;6.86;100;100197.8;;;;-75
2022/11/24 01:05:49;;;;;;;;;;;;;;;6.86;100;100196.6;;;;-75
2022/11/24 01:07:08;;;;;;;8.9;1.5;;;;;;;;;;;;;-76
2022/11/24 01:10:52;;;;;;;;;;;;;;;6.84;100;100193.1;;;;-76
2022/11/24 01:15:49;;;;;;;;;;;;;;;6.82;100;100193.6;;;;-75
2022/11/24 01:20:49;;;;;;;;;;;;;;;6.79;100;100203.1;;;;-76
2022/11/24 01:25:49;;;;;;;;;;;;;;;6.8;100;100204;;;;-75
2022/11/24 01:30:59;;;;;;;;;;;;;;;6.77;100;100220.7;;;;-75
2022/11/24 02:06:12;;;;;;;;;;;;;;;6.68;100;100254.1;;;;-75
2022/11/24 02:07:07;;;;;;;9.7;1.8;;;;;;;;;;;;;-75
2022/11/24 02:10:50;;;;;;;;;;;;;;;6.65;100;100262.7;;;;-75
2022/11/24 02:15:49;;;;;;;;;;;;;;;6.66;100;100269.6;;;;-75
2022/11/24 02:20:49;;;;;;;;;;;;;;;6.69;100;100280.2;;;;-76
2022/11/24 02:25:53;;;;;;;;;;;;;;;6.7;100;100285.1;;;;-76
2022/11/24 02:30:49;;;;;;;;;;;;;;;6.69;100;100297.2;;;;-74
2022/11/24 02:35:49;;;;;;;;;;;;;;;6.72;100;100293.7;;;;-75
2022/11/24 02:37:08;;;;;;;9.6;1.9;;;;;;;;;;;;;-75
2022/11/24 02:40:51;;;;;;;;;;;;;;;6.71;100;100295.6;;;;-73
2022/11/24 02:45:49;;;;;;;;;;;;;;;6.66;100;100303.3;;;;-76
2022/11/24 02:50:49;;;;;;;;;;;;;;;6.66;100;100314.8;;;;-76
2022/11/24 02:55:49;;;;;;;;;;;;;;;6.63;100;100311.5;;;;-75
2022/11/24 03:00:52;;;;;;;;;;;;;;;6.62;100;100319.6;;;;-75
2022/11/24 03:05:49;;;;;;;;;;;;;;;6.57;100;100312.5;;;;-75
2022/11/24 03:07:06;;;;;;;8.2;1.7;;;;;;;;;;;;;-75
2022/11/24 03:10:49;;;;;;;;;;;;;;;6.53;100;100318.5;;;;-76
2022/11/24 03:15:51;;;;;;;;;;;;;;;6.5;100;100326.5;;;;-76
2022/11/24 03:20:49;;;;;;;;;;;;;;;6.47;100;100327.2;;;;-75
2022/11/24 03:25:51;;;;;;;;;;;;;;;6.42;100;100326.9;;;;-75
2022/11/24 03:30:50;;;;;;;;;;;;;;;6.38;100;100334.1;;;;-75
2022/11/24 03:35:51;;;;;;;;;;;;;;;6.36;100;100345.1;;;;-74
2022/11/24 03:37:06;;;;;;;8.1;1.7;;;;;;;;;;;;;-76
2022/11/24 03:40:49;;;;;;;;;;;;;;;6.3;100;100347.2;;;;-75
2022/11/24 03:45:52;;;;;;;;;;;;;;;6.29;100;100358.2;;;;-75
2022/11/24 03:50:55;;;;;;;;;;;;;;;6.24;100;100374.8;;;;-77
2022/11/24 03:55:49;;;;;;;;;;;;;;;6.25;100;100376;;;;-75
2022/11/24 04:00:51;;;;;;;;;;;;;;;6.23;100;100379.9;;;;-75
2022/11/24 04:05:49;;;;;;;;;;;;;;;6.24;100;100385;;;;-75
2022/11/24 04:07:06;;;;;;;7.4;1.1;;;;;;;;;;;;;-76
2022/11/24 04:10:52;;;;;;;;;;;;;;;6.24;100;100387.1;;;;-75
2022/11/24 04:15:49;;;;;;;;;;;;;;;6.24;100;100382.6;;;;-75
2022/11/24 04:20:52;;;;;;;;;;;;;;;6.22;100;100390.1;;;;-75
2022/11/24 04:25:49;;;;;;;;;;;;;;;6.27;100;100398;;;;-75
2022/11/24 04:30:50;;;;;;;;;;;;;;;6.3;100;100402.9;;;;-75
2022/11/24 04:35:49;;;;;;;;;;;;;;;6.24;100;100408.4;;;;-75
2022/11/24 04:37:06;;;;;;;4;0.8;;;;;;;;;;;;;-74
2022/11/24 04:40:51;;;;;;;;;;;;;;;6.28;100;100413.8;;;;-76
2022/11/24 04:45:49;;;;;;;;;;;;;;;6.33;100;100414.6;;;;-75
2022/11/24 04:50:49;;;;;;;;;;;;;;;6.33;100;100424.5;;;;-76
2022/11/24 04:55:49;;;;;;;;;;;;;;;6.38;100;100436.3;;;;-76
2022/11/24 05:00:49;;;;;;;;;;;;;;;6.38;100;100450.7;;;;-77
2022/11/24 05:05:49;;;;;;;;;;;;;;;6.36;100;100461.8;;;;-75
2022/11/24 05:07:06;;;;;;;3.8;0.7;;;;;;;;;;;;;-75
2022/11/24 05:10:49;;;;;;;;;;;;;;;6.43;100;100461;;;;-75
2022/11/24 05:15:49;;;;;;;;;;;;;;;6.41;100;100463.5;;;;-75
2022/11/24 05:20:49;;;;;;;;;;;;;;;6.37;100;100468.6;;;;-74
2022/11/24 05:25:49;;;;;;;;;;;;;;;6.35;100;100480.5;;;;-76
2022/11/24 05:30:52;;;;;;;;;;;;;;;6.35;100;100492.2;;;;-76
2022/11/24 05:35:49;;;;;;;;;;;;;;;6.34;100;100499.1;;;;-75
2022/11/24 05:37:07;;;;;;;6.2;0.9;;;;;;;;;;;;;-75
2022/11/24 05:40:49;;;;;;;;;;;;;;;6.33;100;100516.4;;;;-76
2022/11/24 05:45:49;;;;;;;;;;;;;;;6.33;100;100528.3;;;;-77
2022/11/24 05:50:55;;;;;;;;;;;;;;;6.33;100;100543.6;;;;-75
2022/11/24 05:55:49;;;;;;;;;;;;;;;6.34;100;100555.7;;;;-74
2022/11/24 06:00:49;;;;;;;;;;;;;;;6.32;100;100567;;;;-75
2022/11/24 06:05:52;;;;;;;;;;;;;;;6.35;100;100587.4;;;;-75
2022/11/24 06:07:06;;;;;;;5.3;0.8;;;;;;;;;;;;;-75
2022/11/24 06:10:49;;;;;;;;;;;;;;;6.43;100;100601;;;;-75
2022/11/24 06:15:49;;;;;;;;;;;;;;;6.42;100;100601;;;;-77
2022/11/24 06:20:49;;;;;;;;;;;;;;;6.43;100;100605.8;;;;-77
2022/11/24 06:25:49;;;;;;;;;;;;;;;6.43;100;100612.2;;;;-77
2022/11/24 06:30:49;;;;;;;;;;;;;;;6.47;100;100620.5;;;;-76
2022/11/24 06:35:49;;;;;;;;;;;;;;;6.47;100;100630.7;;;;-76
2022/11/24 06:37:06;;;;;;;3.2;0.8;;;;;;;;;;;;;-76
2022/11/24 06:40:49;;;;;;;;;;;;;;;6.48;100;100640.8;;;;-77
2022/11/24 06:45:53;;;;;;;;;;;;;;;6.48;100;100657.8;;;;-76
2022/11/24 06:50:50;;;;;;;;;;;;;;;6.51;100;100673.4;;;;-76
2022/11/24 06:55:49;;;;;;;;;;;;;;;6.52;100;100671.5;;;;-75
2022/11/24 07:00:49;;;;;;;;;;;;;;;6.53;100;100677.6;;;;-77
2022/11/24 07:05:49;;;;;;;;;;;;;;;6.55;100;100676.3;;;;-77
2022/11/24 07:07:06;;;;;;;3.5;0.8;;;;;;;;;;;;;-77
2022/11/24 07:10:51;;;;;;;;;;;;;;;6.55;100;100680.1;;;;-76
2022/11/24 07:15:49;;;;;;;;;;;;;;;6.54;100;100699.4;;;;-76
2022/11/24 07:20:49;;;;;;;;;;;;;;;6.53;100;100711.1;;;;-77
2022/11/24 07:25:49;;;;;;;;;;;;;;;6.52;100;100723.6;;;;-77
2022/11/24 07:30:49;;;;;;;;;;;;;;;6.51;100;100726.1;;;;-77
2022/11/24 07:35:49;;;;;;;;;;;;;;;6.52;100;100735.2;;;;-77
2022/11/24 07:37:06;;;;;;;4.7;0.9;;;;;;;;;;;;;-77
2022/11/24 07:40:52;;;;;;;;;;;;;;;6.51;100;100736.2;;;;-76
2022/11/24 07:45:53;;;;;;;;;;;;;;;6.46;100;100755.7;;;;-75
2022/11/24 07:50:49;;;;;;;;;;;;;;;6.43;100;100762.9;;;;-75
2022/11/24 07:55:55;;;;;;;;;;;;;;;6.41;100;100767.2;;;;-76
2022/11/24 08:00:49;;;;;;;;;;;;;;;6.42;100;100772.4;;;;-75
2022/11/24 08:05:55;;;;;;;;;;;;;;;6.44;100;100780.5;;;;-76
2022/11/24 08:07:09;;;;;;;3.5;1.1;;;;;;;;;;;;;-76
2022/11/24 08:10:52;;;;;;;;;;;;;;;6.44;100;100783.3;;;;-77
2022/11/24 08:15:49;;;;;;;;;;;;;;;6.44;100;100786.1;;;;-76
2022/11/24 08:20:49;;;;;;;;;;;;;;;6.44;100;100790.8;;;;-76
2022/11/24 08:25:49;;;;;;;;;;;;;;;6.45;100;100801.7;;;;-76
2022/11/24 08:30:49;;;;;;;;;;;;;;;6.46;100;100816.6;;;;-76
2022/11/24 08:35:49;;;;;;;;;;;;;;;6.47;100;100826.2;;;;-76
2022/11/24 08:37:07;;;;;;;7.5;1.7;;;;;;;;;;;;;-76
2022/11/24 08:40:49;;;;;;;;;;;;;;;6.5;100;100832.8;;;;-75
2022/11/24 08:45:49;;;;;;;;;;;;;;;6.55;100;100826.9;;;;-76
2022/11/24 08:50:49;;;;;;;;;;;;;;;6.6;100;100842.1;;;;-76
2022/11/24 08:55:49;;;;;;;;;;;;;;;6.65;100;100842.5;;;;-76
2022/11/24 09:00:49;;;;;;;;;;;;;;;6.75;100;100850.2;;;;-76
2022/11/24 09:05:49;;;;;;;;;;;;;;;6.81;100;100863.1;;;;-77
2022/11/24 09:07:06;;;;;;;5;2;;;;;;;;;;;;;-76
2022/11/24 09:10:50;;;;;;;;;;;;;;;6.9;100;100867.4;;;;-75
2022/11/24 09:15:49;;;;;;;;;;;;;;;6.96;100;100870.6;;;;-76
2022/11/24 09:20:57;;;;;;;;;;;;;;;7;100;100881.3;;;;-77
2022/11/24 09:25:49;;;;;;;;;;;;;;;7.09;100;100886.2;;;;-75
2022/11/24 09:30:49;;;;;;;;;;;;;;;7.11;100;100892;;;;-76
2022/11/24 09:35:52;;;;;;;;;;;;;;;7.18;100;100895.2;;;;-77
2022/11/24 09:37:07;;;;;;;9.6;2.6;;;;;;;;;;;;;-77
2022/11/24 09:40:49;;;;;;;;;;;;;;;7.39;100;100901.2;;;;-77
2022/11/24 09:45:54;;;;;;;;;;;;;;;7.57;100;100903.2;;;;-76
2022/11/24 09:50:52;;;;;;;;;;;;;;;7.65;100;100913.7;;;;-77
2022/11/24 09:55:51;;;;;;;;;;;;;;;7.72;100;100919.9;;;;-77
2022/11/24 10:00:51;;;;;;;;;;;;;;;7.81;100;100935.3;;;;-77
2022/11/24 10:05:52;;;;;;;;;;;;;;;7.93;100;100941.4;;;;-76
2022/11/24 10:07:11;;;;;;;9.4;2.3;;;;;;;;;;;;;-76
2022/11/24 10:10:55;;;;;;;;;;;;;;;7.97;100;100941.3;;;;-76
2022/11/24 10:15:52;;;;;;;;;;;;;;;8.04;100;100944.7;;;;-75
2022/11/24 10:20:53;;;;;;;;;;;;;;;8.09;100;100940.8;;;;-76
2022/11/24 10:25:54;;;;;;;;;;;;;;;8.16;100;100947.2;;;;-76
2022/11/24 10:30:49;;;;;;;;;;;;;;;8.3;100;100944.6;;;;-76
2022/11/24 10:35:54;;;;;;;;;;;;;;;8.36;100;100944.6;;;;-76
2022/11/24 10:37:09;;;;;;;9.9;2.9;;;;;;;;;;;;;-76
2022/11/24 10:40:51;;;;;;;;;;;;;;;8.4;100;100953.4;;;;-76
2022/11/24 10:45:52;;;;;;;;;;;;;;;8.45;100;100964.5;;;;-76
2022/11/24 10:50:49;;;;;;;;;;;;;;;8.47;100;100965.7;;;;-75
2022/11/24 10:56:07;;;;;;;;;;;;;;;8.51;99.79688;100972.9;;;;-76
2022/11/24 11:00:49;;;;;;;;;;;;;;;8.61;99.91797;100972.1;;;;-76
2022/11/24 11:05:50;;;;;;;;;;;;;;;8.72;99.67773;100974.7;;;;-79
2022/11/24 11:07:20;;;;;;;9;2;;;;;;;;;;;;;-75
2022/11/24 11:10:51;;;;;;;;;;;;;;;8.83;99.69434;100968.2;;;;-75
2022/11/24 11:15:49;;;;;;;;;;;;;;;8.87;99.35156;100976.6;;;;-77
2022/11/24 11:20:52;;;;;;;;;;;;;;;8.83;99.32129;100986;;;;-76
2022/11/24 11:25:51;;;;;;;;;;;;;;;8.94;99.70801;100984.1;;;;-75
2022/11/24 11:30:58;;;;;;;;;;;;;;;9.03;99.49902;100979;;;;-75
2022/11/24 11:35:51;;;;;;;;;;;;;;;9.07;98.91504;100980.3;;;;-75
2022/11/24 11:37:07;;;;;;;11.7;2.1;;;;;;;;;;;;;-76
2022/11/24 11:40:51;;;;;;;;;;;;;;;9.13;98.52344;100978.5;;;;-75
2022/11/24 11:45:53;;;;;;;;;;;;;;;9.18;98.49023;100986.3;;;;-74
2022/11/24 11:50:52;;;;;;;;;;;;;;;9.18;98.3584;100986.9;;;;-75
2022/11/24 11:55:56;;;;;;;;;;;;;;;9.27;98.26953;100985.6;;;;-75
2022/11/24 12:00:54;;;;;;;;;;;;;;;9.29;97.86719;100990.4;;;;-75
2022/11/24 12:05:53;;;;;;;;;;;;;;;9.37;97.75391;100989.5;;;;-76
2022/11/24 12:07:18;;;;;;;12.1;1.8;;;;;;;;;;;;;-76
2022/11/24 12:10:53;;;;;;;;;;;;;;;9.47;98.04199;100994.4;;;;-75
2022/11/24 12:15:52;;;;;;;;;;;;;;;9.59;96.80273;100996.8;;;;-75
2022/11/24 12:20:58;;;;;;;;;;;;;;;9.62;96.52344;100997.4;;;;-75
2022/11/24 12:25:51;;;;;;;;;;;;;;;9.64;96.4834;100998.1;;;;-76
2022/11/24 12:30:51;;;;;;;;;;;;;;;9.64;95.88184;101009;;;;-75
2022/11/24 12:35:51;;;;;;;;;;;;;;;9.78;95.75684;101011.4;;;;-75
2022/11/24 12:37:17;;;;;;;12;2;;;;;;;;;;;;;-75
2022/11/24 12:40:58;;;;;;;;;;;;;;;9.74;94.65918;101012.1;;;;-75
2022/11/24 12:45:54;;;;;;;;;;;;;;;9.7;95.11426;101015.6;;;;-77
2022/11/24 12:50:49;;;;;;;;;;;;;;;9.7;94.74121;101011.7;;;;-75
2022/11/24 12:55:49;;;;;;;;;;;;;;;9.66;94.66504;101011.2;;;;-74
2022/11/24 13:00:55;;;;;;;;;;;;;;;9.6;94.96094;101002.7;;;;-76
2022/11/24 13:05:54;;;;;;;;;;;;;;;9.58;95.28516;101008.7;;;;-75
2022/11/24 13:07:13;;;;;;;11.2;1.7;;;;;;;;;;;;;-75
2022/11/24 13:10:49;;;;;;;;;;;;;;;9.57;94.7666;101002.1;;;;-75
2022/11/24 13:16:00;;;;;;;;;;;;;;;9.55;95.31152;101007.3;;;;-76
2022/11/24 13:20:49;;;;;;;;;;;;;;;9.6;94.56543;101019.2;;;;-75
2022/11/24 13:25:59;;;;;;;;;;;;;;;9.62;94.07422;101018.5;;;;-75
2022/11/24 13:31:00;;;;;;;;;;;;;;;9.54;94.75;101023;;;;-76
2022/11/24 13:35:59;;;;;;;;;;;;;;;9.45;95.00195;101021.4;;;;-75
2022/11/24 13:37:19;;;;;;;10.9;2.1;;;;;;;;;;;;;-75
2022/11/24 13:40:49;;;;;;;;;;;;;;;9.44;94.74805;101026.1;;;;-75
2022/11/24 13:45:55;;;;;;;;;;;;;;;9.42;94.90918;101022.1;;;;-75
2022/11/24 13:51:00;;;;;;;;;;;;;;;9.36;95.01758;101016.9;;;;-76
2022/11/24 13:55:55;;;;;;;;;;;;;;;9.3;95.59668;101020.1;;;;-76
2022/11/24 14:01:02;;;;;;;;;;;;;;;9.22;95.85547;101015.7;;;;-74
2022/11/24 14:05:53;;;;;;;;;;;;;;;9.15;95.85059;101007.7;;;;-75
2022/11/24 14:07:14;;;;;;;12;1.9;;;;;;;;;;;;;-75
2022/11/24 14:10:49;;;;;;;;;;;;;;;9.11;96.07324;101010.2;;;;-75
2022/11/24 14:15:59;;;;;;;;;;;;;;;9.07;96.30469;101009.5;;;;-75
2022/11/24 14:20:49;;;;;;;;;;;;;;;9.02;96.27051;101002.2;;;;-75
2022/11/24 14:25:52;;;;;;;;;;;;;;;8.96;96.28027;101016.5;;;;-74
2022/11/24 14:30:51;;;;;;;;;;;;;;;8.9;96.45508;101013.9;;;;-75
2022/11/24 14:35:50;;;;;;;;;;;;;;;8.84;96.86816;101010.2;;;;-75
2022/11/24 14:37:12;;;;;;;12.6;2.3;;;;;;;;;;;;;-75
2022/11/24 14:40:53;;;;;;;;;;;;;;;8.79;96.93262;101010.9;;;;-75
2022/11/24 14:45:55;;;;;;;;;;;;;;;8.73;97.30469;101001.7;;;;-74
2022/11/24 14:50:49;;;;;;;;;;;;;;;8.68;97.34961;100999.3;;;;-75
2022/11/24 14:56:12;;;;;;;;;;;;;;;8.64;97.24023;100990.3;;;;-76
2022/11/24 15:00:59;;;;;;;;;;;;;;;8.6;97.20996;100987.2;;;;-74
2022/11/24 15:06:01;;;;;;;;;;;;;;;8.57;97.23535;100995.9;;;;-76
2022/11/24 15:07:16;;;;;;;13.1;2.4;;;;;;;;;;;;;-75
2022/11/24 15:10:49;;;;;;;;;;;;;;;8.49;97.56738;101003.9;;;;-76
2022/11/24 15:15:51;;;;;;;;;;;;;;;8.43;97.66504;101007.9;;;;-76
2022/11/24 15:20:50;;;;;;;;;;;;;;;8.38;97.80566;101009.9;;;;-75
2022/11/24 15:25:49;;;;;;;;;;;;;;;8.33;98.12402;101026.7;;;;-75
2022/11/24 15:30:49;;;;;;;;;;;;;;;8.28;98.16895;101020.3;;;;-75
2022/11/24 15:35:49;;;;;;;;;;;;;;;8.25;98.00781;101013.6;;;;-75
2022/11/24 15:37:11;;;;;;;12;2.3;;;;;;;;;;;;;-75
2022/11/24 15:40:50;;;;;;;;;;;;;;;8.21;98.18555;101010.9;;;;-74
2022/11/24 15:45:49;;;;;;;;;;;;;;;8.16;98.33691;101010.1;;;;-75
2022/11/24 15:50:49;;;;;;;;;;;;;;;8.06;98.58984;101000.9;;;;-75
2022/11/24 15:55:49;;;;;;;;;;;;;;;7.99;98.74609;101006;;;;-75
2022/11/24 16:00:49;;;;;;;;;;;;;;;7.9;98.93359;101007.3;;;;-75
2022/11/24 16:05:50;;;;;;;;;;;;;;;7.83;99.18164;101004.2;;;;-75
2022/11/24 16:07:12;;;;;;;9.7;2.1;;;;;;;;;;;;;-74
2022/11/24 16:10:50;;;;;;;;;;;;;;;7.78;99.07031;101015.7;;;;-75
2022/11/24 16:15:50;;;;;;;;;;;;;;;7.72;99.06934;101012.8;;;;-74
2022/11/24 16:20:49;;;;;;;;;;;;;;;7.66;99.25195;101013.3;;;;-75
2022/11/24 16:25:49;;;;;;;;;;;;;;;7.61;99.2627;101019.4;;;;-75
2022/11/24 16:30:50;;;;;;;;;;;;;;;7.56;99.25098;101021;;;;-75
2022/11/24 16:35:49;;;;;;;;;;;;;;;7.5;99.27051;101028.4;;;;-75
2022/11/24 16:37:12;;;;;;;8.3;2;;;;;;;;;;;;;-74
2022/11/24 16:40:53;;;;;;;;;;;;;;;7.45;99.40039;101027.9;;;;-75
2022/11/24 16:45:49;;;;;;;;;;;;;;;7.42;99.40527;101025.3;;;;-76
2022/11/24 16:50:49;;;;;;;;;;;;;;;7.39;99.45313;101023.7;;;;-76
2022/11/24 16:55:58;;;;;;;;;;;;;;;7.35;99.58301;101022.8;;;;-75
2022/11/24 17:00:49;;;;;;;;;;;;;;;7.3;99.45508;101019;;;;-74
2022/11/24 17:05:58;;;;;;;;;;;;;;;7.28;99.69043;101014.5;;;;-75
2022/11/24 17:07:14;;;;;;;11.3;2;;;;;;;;;;;;;-75
2022/11/24 17:10:49;;;;;;;;;;;;;;;7.3;99.54004;101015.3;;;;-74
2022/11/24 17:15:49;;;;;;;;;;;;;;;7.28;99.66895;101013;;;;-74
2022/11/24 17:20:49;;;;;;;;;;;;;;;7.32;99.63379;101007.2;;;;-75
2022/11/24 17:25:49;;;;;;;;;;;;;;;7.35;99.57422;101003.7;;;;-75
2022/11/24 17:30:49;;;;;;;;;;;;;;;7.4;99.34473;100995.8;;;;-75
2022/11/24 17:35:49;;;;;;;;;;;;;;;7.37;99.56738;101002.3;;;;-75
2022/11/24 17:37:13;;;;;;;9.9;1.9;;;;;;;;;;;;;-75
2022/11/24 17:40:52;;;;;;;;;;;;;;;7.32;99.67676;100997.3;;;;-75
2022/11/24 17:45:55;;;;;;;;;;;;;;;7.32;99.49121;100995.5;;;;-75
2022/11/24 17:50:49;;;;;;;;;;;;;;;7.34;99.38672;100983.7;;;;-75
2022/11/24 17:55:49;;;;;;;;;;;;;;;7.33;99.42773;100985.8;;;;-74
2022/11/24 18:00:55;;;;;;;;;;;;;;;7.3;99.44141;100983.5;;;;-80
2022/11/24 18:05:49;;;;;;;;;;;;;;;7.29;99.41992;101004.8;;;;-76
2022/11/24 18:07:13;;;;;;;10.2;1.9;;;;;;;;;;;;;-75
2022/11/24 18:10:49;;;;;;;;;;;;;;;7.3;99.41992;100994.8;;;;-74
2022/11/24 18:15:49;;;;;;;;;;;;;;;7.29;99.49414;100996.5;;;;-76
2022/11/24 18:20:55;;;;;;;;;;;;;;;7.33;99.31934;100988.2;;;;-75
2022/11/24 18:25:54;;;;;;;;;;;;;;;7.36;99.30371;100991.2;;;;-74
2022/11/24 18:30:50;;;;;;;;;;;;;;;7.37;99.27246;100988.8;;;;-78
2022/11/24 18:35:58;;;;;;;;;;;;;;;7.37;99.26172;100992.7;;;;-75
2022/11/24 18:37:15;;;;;;;11.2;1.8;;;;;;;;;;;;;-75
2022/11/24 18:40:54;;;;;;;;;;;;;;;7.36;99.21777;100986.3;;;;-75
2022/11/24 18:45:51;;;;;;;;;;;;;;;7.36;99.13086;100989;;;;-76
2022/11/24 18:50:52;;;;;;;;;;;;;;;7.35;99.00684;100988.6;;;;-76
2022/11/24 18:55:56;;;;;;;;;;;;;;;7.33;99.0127;100976.9;;;;-76
2022/11/24 19:00:49;;;;;;;;;;;;;;;7.31;98.94531;100977.5;;;;-74
2022/11/24 19:05:49;;;;;;;;;;;;;;;7.3;98.84277;100969.6;;;;-77
2022/11/24 19:07:15;;;;;;;11.6;2.2;;;;;;;;;;;;;-77
2022/11/24 19:10:49;;;;;;;;;;;;;;;7.27;98.86719;100975.7;;;;-76
2022/11/24 19:15:50;;;;;;;;;;;;;;;7.24;98.90527;100966.4;;;;-76
2022/11/24 19:20:49;;;;;;;;;;;;;;;7.2;98.91699;100967.7;;;;-74
2022/11/24 19:25:49;;;;;;;;;;;;;;;7.17;99.05273;100963.5;;;;-75
2022/11/24 19:30:50;;;;;;;;;;;;;;;7.14;98.93652;100966.4;;;;-75
2022/11/24 19:35:50;;;;;;;;;;;;;;;7.14;98.95898;100957.1;;;;-74
2022/11/24 19:37:15;;;;;;;10.1;2.1;;;;;;;;;;;;;-74
2022/11/24 19:40:50;;;;;;;;;;;;;;;7.13;98.9043;100970.1;;;;-76
2022/11/24 19:45:49;;;;;;;;;;;;;;;7.13;98.86914;100960.1;;;;-76
2022/11/24 19:50:51;;;;;;;;;;;;;;;7.1;98.99219;100956.6;;;;-76
2022/11/24 19:55:51;;;;;;;;;;;;;;;7.11;98.74316;100961.8;;;;-75
2022/11/24 20:00:49;;;;;;;;;;;;;;;7.14;98.55469;100955.4;;;;-76
2022/11/24 20:05:56;;;;;;;;;;;;;;;7.13;98.55469;100947.3;;;;-76
2022/11/24 20:07:13;;;;;;;8.9;2.3;;;;;;;;;;;;;-76
2022/11/24 20:10:49;;;;;;;;;;;;;;;7.13;98.3457;100948.1;;;;-76
2022/11/24 20:15:50;;;;;;;;;;;;;;;7.12;98.125;100953.2;;;;-75
2022/11/24 20:20:49;;;;;;;;;;;;;;;7.13;98.08301;100946.9;;;;-76
2022/11/24 20:25:52;;;;;;;;;;;;;;;7.12;98.11426;100945.2;;;;-75
2022/11/24 20:30:50;;;;;;;;;;;;;;;7.15;97.70508;100937.6;;;;-75
2022/11/24 20:35:50;;;;;;;;;;;;;;;7.16;97.41504;100930.1;;;;-75
2022/11/24 20:37:14;;;;;;;11;2.4;;;;;;;;;;;;;-75
2022/11/24 20:40:50;;;;;;;;;;;;;;;7.17;97.58984;100937.3;;;;-75
2022/11/24 20:45:49;;;;;;;;;;;;;;;7.21;97.43555;100946.5;;;;-75
2022/11/24 20:50:50;;;;;;;;;;;;;;;7.23;97.33203;100944.1;;;;-75
2022/11/24 20:55:49;;;;;;;;;;;;;;;7.27;97.2627;100942.9;;;;-76
2022/11/24 21:00:50;;;;;;;;;;;;;;;7.3;97.10449;100949.5;;;;-76
2022/11/24 21:05:51;;;;;;;;;;;;;;;7.31;97.0127;100938.6;;;;-77
2022/11/24 21:07:15;;;;;;;9.6;2.3;;;;;;;;;;;;;-76
2022/11/24 21:10:55;;;;;;;;;;;;;;;7.35;96.85449;100941.3;;;;-75
2022/11/24 21:15:50;;;;;;;;;;;;;;;7.36;96.99805;100940.8;;;;-77
2022/11/24 21:20:49;;;;;;;;;;;;;;;7.35;97.09473;100937.5;;;;-75
2022/11/24 21:25:49;;;;;;;;;;;;;;;7.35;97.2041;100943.3;;;;-76
2022/11/24 21:30:49;;;;;;;;;;;;;;;7.36;97.21875;100944.8;;;;-75
2022/11/24 21:35:50;;;;;;;;;;;;;;;7.38;97.26465;100933.6;;;;-75
2022/11/24 21:37:14;;;;;;;7.1;2;;;;;;;;;;;;;-76
2022/11/24 21:40:49;;;;;;;;;;;;;;;7.4;97.18359;100931.8;;;;-75
2022/11/24 21:45:50;;;;;;;;;;;;;;;7.42;97.17676;100941.7;;;;-75
2022/11/24 21:50:49;;;;;;;;;;;;;;;7.43;97.00391;100934.2;;;;-76
2022/11/24 21:55:56;;;;;;;;;;;;;;;7.43;97.2002;100926.6;;;;-76
2022/11/24 22:00:50;;;;;;;;;;;;;;;7.43;97.30957;100929.6;;;;-75
2022/11/24 22:05:54;;;;;;;;;;;;;;;7.41;97.49121;100922;;;;-76
2022/11/24 22:07:14;;;;;;;11;2.3;;;;;;;;;;;;;-77
2022/11/24 22:10:49;;;;;;;;;;;;;;;7.4;97.46777;100915.9;;;;-76
2022/11/24 22:15:49;;;;;;;;;;;;;;;7.41;97.53516;100914.2;;;;-75
2022/11/24 22:20:56;;;;;;;;;;;;;;;7.41;97.5918;100908.2;;;;-75
2022/11/24 22:25:49;;;;;;;;;;;;;;;7.42;97.625;100909.7;;;;-75
2022/11/24 22:30:49;;;;;;;;;;;;;;;7.44;97.70508;100916.2;;;;-75
2022/11/24 22:35:57;;;;;;;;;;;;;;;7.44;97.74902;100920.6;;;;-74
2022/11/24 22:37:14;;;;;;;10.1;2.2;;;;;;;;;;;;;-76
2022/11/24 22:40:49;;;;;;;;;;;;;;;7.44;97.86914;100920.7;;;;-75
2022/11/24 22:45:49;;;;;;;;;;;;;;;7.46;97.91895;100920.4;;;;-76
2022/11/24 22:50:49;;;;;;;;;;;;;;;7.48;97.87891;100919;;;;-75
2022/11/24 22:55:49;;;;;;;;;;;;;;;7.47;98.00684;100923.6;;;;-75
2022/11/24 23:00:49;;;;;;;;;;;;;;;7.48;98.00781;100925;;;;-75
2022/11/24 23:05:49;;;;;;;;;;;;;;;7.47;98.26855;100914.7;;;;-76
2022/11/24 23:07:14;;;;;;;11.5;2.5;;;;;;;;;;;;;-76
2022/11/24 23:10:49;;;;;;;;;;;;;;;7.49;98.13281;100918.7;;;;-77
2022/11/24 23:15:49;;;;;;;;;;;;;;;7.5;98.18945;100919.2;;;;-77
2022/11/24 23:20:49;;;;;;;;;;;;;;;7.49;98.30762;100915.2;;;;-76
2022/11/24 23:25:50;;;;;;;;;;;;;;;7.5;98.29883;100918;;;;-75
2022/11/24 23:30:49;;;;;;;;;;;;;;;7.5;98.37305;100912.4;;;;-75
2022/11/24 23:35:51;;;;;;;;;;;;;;;7.51;98.44238;100921.1;;;;-76
2022/11/24 23:37:16;;;;;;;8.8;2.1;;;;;;;;;;;;;-76
2022/11/24 23:40:49;;;;;;;;;;;;;;;7.54;98.59082;100921.3;;;;-76
2022/11/24 23:45:49;;;;;;;;;;;;;;;7.55;98.75488;100916.9;;;;-76
2022/11/24 23:50:48;;;;;;;;;;;;;;;7.55;98.81152;100917.2;;;;-76
2022/11/24 23:55:54;;;;;;;;;;;;;;;7.56;99.11035;100913.8;;;;-76
